sensor_id;sensor_type;location;lat;lon;timestamp;temperature;humidity
32706;DHT22;19094;50.972;3.538;2022-08-14T00:00:16;27.20;44.40
32706;DHT22;19094;50.972;3.538;2022-08-14T00:02:42;27.20;44.50
32706;DHT22;19094;50.972;3.538;2022-08-14T00:05:10;27.20;44.50
32706;DHT22;19094;50.972;3.538;2022-08-14T00:07:36;27.20;44.50
32706;DHT22;19094;50.972;3.538;2022-08-14T00:10:04;27.20;44.50
32706;DHT22;19094;50.972;3.538;2022-08-14T00:12:33;27.20;44.60
32706;DHT22;19094;50.972;3.538;2022-08-14T00:14:59;27.20;44.60
32706;DHT22;19094;50.972;3.538;2022-08-14T00:17:24;27.20;44.60
32706;DHT22;19094;50.972;3.538;2022-08-14T00:19:51;27.20;44.70
32706;DHT22;19094;50.972;3.538;2022-08-14T00:22:17;27.10;44.70
32706;DHT22;19094;50.972;3.538;2022-08-14T00:24:44;27.10;44.70
32706;DHT22;19094;50.972;3.538;2022-08-14T00:27:10;27.10;45.30
32706;DHT22;19094;50.972;3.538;2022-08-14T00:29:36;27.10;44.80
32706;DHT22;19094;50.972;3.538;2022-08-14T00:32:02;27.10;44.80
32706;DHT22;19094;50.972;3.538;2022-08-14T00:34:28;27.10;44.80
32706;DHT22;19094;50.972;3.538;2022-08-14T00:36:53;27.10;44.90
32706;DHT22;19094;50.972;3.538;2022-08-14T00:39:19;27.10;44.90
32706;DHT22;19094;50.972;3.538;2022-08-14T00:41:46;27.00;44.90
32706;DHT22;19094;50.972;3.538;2022-08-14T00:44:12;27.00;45.00
32706;DHT22;19094;50.972;3.538;2022-08-14T00:46:38;27.00;45.00
32706;DHT22;19094;50.972;3.538;2022-08-14T00:49:05;27.00;45.10
32706;DHT22;19094;50.972;3.538;2022-08-14T00:51:32;27.00;45.20
32706;DHT22;19094;50.972;3.538;2022-08-14T00:54:00;27.00;45.20
32706;DHT22;19094;50.972;3.538;2022-08-14T00:56:28;26.90;45.20
32706;DHT22;19094;50.972;3.538;2022-08-14T00:58:54;27.00;45.20
32706;DHT22;19094;50.972;3.538;2022-08-14T01:01:21;27.00;45.30
32706;DHT22;19094;50.972;3.538;2022-08-14T01:03:47;26.90;45.20
32706;DHT22;19094;50.972;3.538;2022-08-14T01:06:13;26.90;45.30
32706;DHT22;19094;50.972;3.538;2022-08-14T01:08:43;26.90;45.30
32706;DHT22;19094;50.972;3.538;2022-08-14T01:11:11;26.90;45.30
32706;DHT22;19094;50.972;3.538;2022-08-14T01:13:42;26.90;45.40
32706;DHT22;19094;50.972;3.538;2022-08-14T01:16:11;26.90;45.30
32706;DHT22;19094;50.972;3.538;2022-08-14T01:18:37;26.80;45.40
32706;DHT22;19094;50.972;3.538;2022-08-14T01:21:30;26.80;45.40
32706;DHT22;19094;50.972;3.538;2022-08-14T01:23:56;26.80;45.50
32706;DHT22;19094;50.972;3.538;2022-08-14T01:26:23;26.80;45.50
32706;DHT22;19094;50.972;3.538;2022-08-14T01:28:54;26.80;45.60
32706;DHT22;19094;50.972;3.538;2022-08-14T01:31:22;26.70;45.60
32706;DHT22;19094;50.972;3.538;2022-08-14T01:33:50;26.70;45.50
32706;DHT22;19094;50.972;3.538;2022-08-14T01:36:17;26.70;45.60
32706;DHT22;19094;50.972;3.538;2022-08-14T01:38:47;26.70;45.60
32706;DHT22;19094;50.972;3.538;2022-08-14T01:41:20;26.70;45.60
32706;DHT22;19094;50.972;3.538;2022-08-14T01:43:58;26.70;45.70
32706;DHT22;19094;50.972;3.538;2022-08-14T01:46:30;26.70;45.70
32706;DHT22;19094;50.972;3.538;2022-08-14T01:48:58;26.70;45.60
32706;DHT22;19094;50.972;3.538;2022-08-14T01:51:26;26.70;45.60
32706;DHT22;19094;50.972;3.538;2022-08-14T01:53:58;26.70;45.70
32706;DHT22;19094;50.972;3.538;2022-08-14T01:56:30;26.70;45.70
32706;DHT22;19094;50.972;3.538;2022-08-14T01:59:28;26.70;45.70
32706;DHT22;19094;50.972;3.538;2022-08-14T02:01:59;26.70;45.80
32706;DHT22;19094;50.972;3.538;2022-08-14T02:04:30;26.70;45.70
32706;DHT22;19094;50.972;3.538;2022-08-14T02:06:57;26.70;45.80
32706;DHT22;19094;50.972;3.538;2022-08-14T02:09:23;26.60;45.80
32706;DHT22;19094;50.972;3.538;2022-08-14T02:11:50;26.60;45.80
32706;DHT22;19094;50.972;3.538;2022-08-14T02:14:16;26.60;45.80
32706;DHT22;19094;50.972;3.538;2022-08-14T02:16:48;26.60;45.80
32706;DHT22;19094;50.972;3.538;2022-08-14T02:19:23;26.60;45.80
32706;DHT22;19094;50.972;3.538;2022-08-14T02:21:52;26.60;45.80
32706;DHT22;19094;50.972;3.538;2022-08-14T02:24:21;26.70;46.40
32706;DHT22;19094;50.972;3.538;2022-08-14T02:26:49;26.60;45.70
32706;DHT22;19094;50.972;3.538;2022-08-14T02:29:21;26.60;45.80
32706;DHT22;19094;50.972;3.538;2022-08-14T02:31:50;26.60;45.90
32706;DHT22;19094;50.972;3.538;2022-08-14T02:34:34;26.60;45.90
32706;DHT22;19094;50.972;3.538;2022-08-14T02:37:11;26.50;45.90
32706;DHT22;19094;50.972;3.538;2022-08-14T02:39:40;26.50;45.90
32706;DHT22;19094;50.972;3.538;2022-08-14T02:42:10;26.50;45.90
32706;DHT22;19094;50.972;3.538;2022-08-14T02:44:37;26.50;45.90
32706;DHT22;19094;50.972;3.538;2022-08-14T02:47:06;26.50;46.00
32706;DHT22;19094;50.972;3.538;2022-08-14T02:49:33;26.50;46.00
32706;DHT22;19094;50.972;3.538;2022-08-14T02:51:59;26.50;45.90
32706;DHT22;19094;50.972;3.538;2022-08-14T02:54:26;26.50;46.00
32706;DHT22;19094;50.972;3.538;2022-08-14T02:56:56;26.50;46.00
32706;DHT22;19094;50.972;3.538;2022-08-14T02:59:26;26.50;46.00
32706;DHT22;19094;50.972;3.538;2022-08-14T03:01:56;26.50;46.10
32706;DHT22;19094;50.972;3.538;2022-08-14T03:04:23;26.50;46.10
32706;DHT22;19094;50.972;3.538;2022-08-14T03:06:50;26.40;46.00
32706;DHT22;19094;50.972;3.538;2022-08-14T03:09:16;26.40;46.10
32706;DHT22;19094;50.972;3.538;2022-08-14T03:11:42;26.40;46.10
32706;DHT22;19094;50.972;3.538;2022-08-14T03:14:10;26.40;46.20
32706;DHT22;19094;50.972;3.538;2022-08-14T03:16:38;26.40;46.10
32706;DHT22;19094;50.972;3.538;2022-08-14T03:19:05;26.40;46.20
32706;DHT22;19094;50.972;3.538;2022-08-14T03:21:32;26.40;46.20
32706;DHT22;19094;50.972;3.538;2022-08-14T03:23:59;26.40;46.20
32706;DHT22;19094;50.972;3.538;2022-08-14T03:26:42;26.30;46.10
32706;DHT22;19094;50.972;3.538;2022-08-14T03:29:11;26.40;46.20
32706;DHT22;19094;50.972;3.538;2022-08-14T03:31:38;26.30;46.20
32706;DHT22;19094;50.972;3.538;2022-08-14T03:34:05;26.30;46.20
32706;DHT22;19094;50.972;3.538;2022-08-14T03:36:35;26.30;46.20
32706;DHT22;19094;50.972;3.538;2022-08-14T03:39:04;26.30;46.20
32706;DHT22;19094;50.972;3.538;2022-08-14T03:41:30;26.30;46.30
32706;DHT22;19094;50.972;3.538;2022-08-14T03:43:58;26.30;46.30
32706;DHT22;19094;50.972;3.538;2022-08-14T03:46:26;26.30;46.30
32706;DHT22;19094;50.972;3.538;2022-08-14T03:48:53;26.30;46.30
32706;DHT22;19094;50.972;3.538;2022-08-14T03:51:20;26.30;46.30
32706;DHT22;19094;50.972;3.538;2022-08-14T03:53:47;26.30;46.40
32706;DHT22;19094;50.972;3.538;2022-08-14T03:56:15;26.20;46.30
32706;DHT22;19094;50.972;3.538;2022-08-14T03:58:49;26.20;46.40
32706;DHT22;19094;50.972;3.538;2022-08-14T04:01:17;26.20;46.40
32706;DHT22;19094;50.972;3.538;2022-08-14T04:03:48;26.20;46.40
32706;DHT22;19094;50.972;3.538;2022-08-14T04:06:15;26.20;46.40
32706;DHT22;19094;50.972;3.538;2022-08-14T04:08:42;26.20;46.40
32706;DHT22;19094;50.972;3.538;2022-08-14T04:11:08;26.20;46.40
32706;DHT22;19094;50.972;3.538;2022-08-14T04:13:38;26.20;46.40
32706;DHT22;19094;50.972;3.538;2022-08-14T04:16:06;26.20;46.50
32706;DHT22;19094;50.972;3.538;2022-08-14T04:18:32;26.20;46.50
32706;DHT22;19094;50.972;3.538;2022-08-14T04:20:58;26.20;46.50
32706;DHT22;19094;50.972;3.538;2022-08-14T04:23:24;26.10;46.40
32706;DHT22;19094;50.972;3.538;2022-08-14T04:25:50;26.20;46.50
32706;DHT22;19094;50.972;3.538;2022-08-14T04:28:20;26.20;46.50
32706;DHT22;19094;50.972;3.538;2022-08-14T04:30:46;26.10;46.50
32706;DHT22;19094;50.972;3.538;2022-08-14T04:33:12;26.10;46.50
32706;DHT22;19094;50.972;3.538;2022-08-14T04:35:39;26.10;46.60
32706;DHT22;19094;50.972;3.538;2022-08-14T04:38:06;26.10;46.70
32706;DHT22;19094;50.972;3.538;2022-08-14T04:40:50;26.00;46.70
32706;DHT22;19094;50.972;3.538;2022-08-14T04:43:35;25.90;46.60
32706;DHT22;19094;50.972;3.538;2022-08-14T04:46:08;25.90;46.70
32706;DHT22;19094;50.972;3.538;2022-08-14T04:48:35;25.90;46.80
32706;DHT22;19094;50.972;3.538;2022-08-14T04:51:05;25.90;46.50
32706;DHT22;19094;50.972;3.538;2022-08-14T04:53:32;25.90;46.80
32706;DHT22;19094;50.972;3.538;2022-08-14T04:55:58;25.80;46.80
32706;DHT22;19094;50.972;3.538;2022-08-14T04:58:27;25.80;46.90
32706;DHT22;19094;50.972;3.538;2022-08-14T05:00:54;25.80;47.10
32706;DHT22;19094;50.972;3.538;2022-08-14T05:03:22;25.80;47.20
32706;DHT22;19094;50.972;3.538;2022-08-14T05:05:49;25.70;47.20
32706;DHT22;19094;50.972;3.538;2022-08-14T05:08:16;25.70;47.20
32706;DHT22;19094;50.972;3.538;2022-08-14T05:10:47;25.70;47.30
32706;DHT22;19094;50.972;3.538;2022-08-14T05:13:20;25.70;47.30
32706;DHT22;19094;50.972;3.538;2022-08-14T05:15:46;25.70;47.30
32706;DHT22;19094;50.972;3.538;2022-08-14T05:18:16;25.70;47.30
32706;DHT22;19094;50.972;3.538;2022-08-14T05:20:44;25.70;47.30
32706;DHT22;19094;50.972;3.538;2022-08-14T05:23:12;25.70;47.40
32706;DHT22;19094;50.972;3.538;2022-08-14T05:25:39;25.70;47.40
32706;DHT22;19094;50.972;3.538;2022-08-14T05:28:07;25.70;47.40
32706;DHT22;19094;50.972;3.538;2022-08-14T05:30:32;25.70;47.40
32706;DHT22;19094;50.972;3.538;2022-08-14T05:32:58;25.70;47.40
32706;DHT22;19094;50.972;3.538;2022-08-14T05:35:25;25.70;47.40
32706;DHT22;19094;50.972;3.538;2022-08-14T05:37:51;25.70;47.40
32706;DHT22;19094;50.972;3.538;2022-08-14T05:40:17;25.70;47.40
32706;DHT22;19094;50.972;3.538;2022-08-14T05:42:43;25.70;47.40
32706;DHT22;19094;50.972;3.538;2022-08-14T05:45:09;25.70;47.40
32706;DHT22;19094;50.972;3.538;2022-08-14T05:47:39;25.70;47.40
32706;DHT22;19094;50.972;3.538;2022-08-14T05:50:07;25.70;47.40
32706;DHT22;19094;50.972;3.538;2022-08-14T05:52:33;25.70;47.40
32706;DHT22;19094;50.972;3.538;2022-08-14T05:54:58;25.70;47.30
32706;DHT22;19094;50.972;3.538;2022-08-14T05:57:25;25.70;47.40
32706;DHT22;19094;50.972;3.538;2022-08-14T05:59:51;25.70;47.40
32706;DHT22;19094;50.972;3.538;2022-08-14T06:02:17;25.70;48.00
32706;DHT22;19094;50.972;3.538;2022-08-14T06:04:42;25.70;47.30
32706;DHT22;19094;50.972;3.538;2022-08-14T06:07:13;25.70;47.30
32706;DHT22;19094;50.972;3.538;2022-08-14T06:09:39;25.70;47.30
32706;DHT22;19094;50.972;3.538;2022-08-14T06:12:05;25.70;47.30
32706;DHT22;19094;50.972;3.538;2022-08-14T06:14:31;25.70;47.30
32706;DHT22;19094;50.972;3.538;2022-08-14T06:16:57;25.80;47.30
32706;DHT22;19094;50.972;3.538;2022-08-14T06:19:22;25.80;47.20
32706;DHT22;19094;50.972;3.538;2022-08-14T06:21:48;25.80;47.20
32706;DHT22;19094;50.972;3.538;2022-08-14T06:24:13;25.80;47.20
32706;DHT22;19094;50.972;3.538;2022-08-14T06:26:39;25.70;47.50
32706;DHT22;19094;50.972;3.538;2022-08-14T06:29:05;25.70;46.80
32706;DHT22;19094;50.972;3.538;2022-08-14T06:31:30;25.70;45.90
32706;DHT22;19094;50.972;3.538;2022-08-14T06:33:56;25.70;45.90
32706;DHT22;19094;50.972;3.538;2022-08-14T06:36:22;25.80;46.50
32706;DHT22;19094;50.972;3.538;2022-08-14T06:38:50;25.90;46.70
32706;DHT22;19094;50.972;3.538;2022-08-14T06:41:16;25.90;46.60
32706;DHT22;19094;50.972;3.538;2022-08-14T06:43:41;25.90;46.20
32706;DHT22;19094;50.972;3.538;2022-08-14T06:46:07;26.00;45.90
32706;DHT22;19094;50.972;3.538;2022-08-14T06:48:33;26.00;45.40
32706;DHT22;19094;50.972;3.538;2022-08-14T06:50:59;26.00;45.20
32706;DHT22;19094;50.972;3.538;2022-08-14T06:53:25;26.10;45.00
32706;DHT22;19094;50.972;3.538;2022-08-14T06:55:50;26.10;44.80
32706;DHT22;19094;50.972;3.538;2022-08-14T06:58:18;26.00;45.00
32706;DHT22;19094;50.972;3.538;2022-08-14T07:00:44;26.10;45.50
32706;DHT22;19094;50.972;3.538;2022-08-14T07:03:31;26.10;44.60
32706;DHT22;19094;50.972;3.538;2022-08-14T07:06:16;26.10;45.10
32706;DHT22;19094;50.972;3.538;2022-08-14T07:08:42;26.10;45.30
32706;DHT22;19094;50.972;3.538;2022-08-14T07:11:09;26.20;44.70
32706;DHT22;19094;50.972;3.538;2022-08-14T07:13:35;26.20;44.60
32706;DHT22;19094;50.972;3.538;2022-08-14T07:16:02;26.20;45.10
32706;DHT22;19094;50.972;3.538;2022-08-14T07:18:29;26.30;45.20
32706;DHT22;19094;50.972;3.538;2022-08-14T07:20:56;26.30;45.80
32706;DHT22;19094;50.972;3.538;2022-08-14T07:23:22;26.30;45.10
32706;DHT22;19094;50.972;3.538;2022-08-14T07:25:50;26.30;44.70
32706;DHT22;19094;50.972;3.538;2022-08-14T07:28:17;26.30;45.00
32706;DHT22;19094;50.972;3.538;2022-08-14T07:30:43;26.30;45.00
32706;DHT22;19094;50.972;3.538;2022-08-14T07:33:11;26.40;44.90
32706;DHT22;19094;50.972;3.538;2022-08-14T07:35:38;26.40;45.00
32706;DHT22;19094;50.972;3.538;2022-08-14T07:38:06;26.40;45.00
32706;DHT22;19094;50.972;3.538;2022-08-14T07:40:33;26.40;44.90
32706;DHT22;19094;50.972;3.538;2022-08-14T07:42:59;26.40;44.90
32706;DHT22;19094;50.972;3.538;2022-08-14T07:45:25;26.40;44.80
32706;DHT22;19094;50.972;3.538;2022-08-14T07:47:52;26.50;44.70
32706;DHT22;19094;50.972;3.538;2022-08-14T07:50:20;26.50;44.80
32706;DHT22;19094;50.972;3.538;2022-08-14T07:52:47;26.40;44.80
32706;DHT22;19094;50.972;3.538;2022-08-14T07:55:15;26.40;44.80
32706;DHT22;19094;50.972;3.538;2022-08-14T07:57:43;26.50;45.00
32706;DHT22;19094;50.972;3.538;2022-08-14T08:00:20;26.50;44.80
32706;DHT22;19094;50.972;3.538;2022-08-14T08:02:49;26.50;45.40
32706;DHT22;19094;50.972;3.538;2022-08-14T08:05:17;26.60;44.90
32706;DHT22;19094;50.972;3.538;2022-08-14T08:07:45;26.50;44.70
32706;DHT22;19094;50.972;3.538;2022-08-14T08:10:22;26.60;44.60
32706;DHT22;19094;50.972;3.538;2022-08-14T08:12:59;26.60;44.90
32706;DHT22;19094;50.972;3.538;2022-08-14T08:15:28;26.60;44.70
32706;DHT22;19094;50.972;3.538;2022-08-14T08:17:54;26.60;44.60
32706;DHT22;19094;50.972;3.538;2022-08-14T08:20:22;26.60;44.70
32706;DHT22;19094;50.972;3.538;2022-08-14T08:22:50;26.60;44.60
32706;DHT22;19094;50.972;3.538;2022-08-14T08:25:19;26.70;44.50
32706;DHT22;19094;50.972;3.538;2022-08-14T08:28:07;26.70;44.50
32706;DHT22;19094;50.972;3.538;2022-08-14T08:30:36;26.70;44.20
32706;DHT22;19094;50.972;3.538;2022-08-14T08:33:02;26.80;44.10
32706;DHT22;19094;50.972;3.538;2022-08-14T08:35:32;26.80;44.00
32706;DHT22;19094;50.972;3.538;2022-08-14T08:38:11;26.80;44.20
32706;DHT22;19094;50.972;3.538;2022-08-14T08:40:41;26.80;44.20
32706;DHT22;19094;50.972;3.538;2022-08-14T08:46:07;26.90;44.20
32706;DHT22;19094;50.972;3.538;2022-08-14T08:48:54;26.90;44.00
32706;DHT22;19094;50.972;3.538;2022-08-14T08:51:27;27.00;44.10
32706;DHT22;19094;50.972;3.538;2022-08-14T08:54:10;27.00;43.10
32706;DHT22;19094;50.972;3.538;2022-08-14T08:56:48;27.10;43.30
32706;DHT22;19094;50.972;3.538;2022-08-14T08:59:19;27.10;43.80
32706;DHT22;19094;50.972;3.538;2022-08-14T09:01:51;27.20;43.30
32706;DHT22;19094;50.972;3.538;2022-08-14T09:04:20;27.20;43.50
32706;DHT22;19094;50.972;3.538;2022-08-14T09:06:47;27.30;42.70
32706;DHT22;19094;50.972;3.538;2022-08-14T09:09:26;27.30;43.20
32706;DHT22;19094;50.972;3.538;2022-08-14T09:11:53;27.30;42.80
32706;DHT22;19094;50.972;3.538;2022-08-14T09:14:24;27.30;43.40
32706;DHT22;19094;50.972;3.538;2022-08-14T09:16:51;27.30;42.20
32706;DHT22;19094;50.972;3.538;2022-08-14T09:19:17;27.40;42.40
32706;DHT22;19094;50.972;3.538;2022-08-14T09:21:43;27.50;42.80
32706;DHT22;19094;50.972;3.538;2022-08-14T09:24:11;27.50;43.30
32706;DHT22;19094;50.972;3.538;2022-08-14T09:26:36;27.50;43.10
32706;DHT22;19094;50.972;3.538;2022-08-14T09:29:06;27.50;43.10
32706;DHT22;19094;50.972;3.538;2022-08-14T09:31:33;27.60;41.40
32706;DHT22;19094;50.972;3.538;2022-08-14T09:34:13;27.60;42.50
32706;DHT22;19094;50.972;3.538;2022-08-14T09:45:38;27.80;42.70
32706;DHT22;19094;50.972;3.538;2022-08-14T09:48:15;27.90;41.00
32706;DHT22;19094;50.972;3.538;2022-08-14T09:50:52;27.90;42.20
32706;DHT22;19094;50.972;3.538;2022-08-14T09:53:41;27.90;41.80
32706;DHT22;19094;50.972;3.538;2022-08-14T09:56:09;28.00;42.30
32706;DHT22;19094;50.972;3.538;2022-08-14T10:01:17;28.00;40.60
32706;DHT22;19094;50.972;3.538;2022-08-14T10:03:54;28.10;42.00
32706;DHT22;19094;50.972;3.538;2022-08-14T10:06:23;28.10;41.50
32706;DHT22;19094;50.972;3.538;2022-08-14T10:08:56;28.10;41.90
32706;DHT22;19094;50.972;3.538;2022-08-14T10:11:25;28.10;41.60
32706;DHT22;19094;50.972;3.538;2022-08-14T10:13:57;28.10;42.00
32706;DHT22;19094;50.972;3.538;2022-08-14T10:16:24;28.10;42.10
32706;DHT22;19094;50.972;3.538;2022-08-14T10:19:09;28.00;42.20
32706;DHT22;19094;50.972;3.538;2022-08-14T10:21:41;28.00;42.30
32706;DHT22;19094;50.972;3.538;2022-08-14T10:24:22;28.10;41.80
32706;DHT22;19094;50.972;3.538;2022-08-14T10:26:55;28.10;42.30
32706;DHT22;19094;50.972;3.538;2022-08-14T10:29:33;28.00;41.90
32706;DHT22;19094;50.972;3.538;2022-08-14T10:32:00;28.00;41.90
32706;DHT22;19094;50.972;3.538;2022-08-14T10:34:34;28.00;42.40
32706;DHT22;19094;50.972;3.538;2022-08-14T10:37:06;27.90;42.50
32706;DHT22;19094;50.972;3.538;2022-08-14T10:39:33;27.90;42.30
32706;DHT22;19094;50.972;3.538;2022-08-14T10:42:06;27.90;42.50
32706;DHT22;19094;50.972;3.538;2022-08-14T10:44:37;27.90;42.60
32706;DHT22;19094;50.972;3.538;2022-08-14T10:47:08;27.90;42.50
32706;DHT22;19094;50.972;3.538;2022-08-14T10:49:35;27.90;42.70
32706;DHT22;19094;50.972;3.538;2022-08-14T10:52:04;27.80;42.70
32706;DHT22;19094;50.972;3.538;2022-08-14T10:57:17;27.90;42.70
32706;DHT22;19094;50.972;3.538;2022-08-14T10:59:45;27.90;42.80
32706;DHT22;19094;50.972;3.538;2022-08-14T11:02:19;27.90;42.60
32706;DHT22;19094;50.972;3.538;2022-08-14T11:05:00;28.00;41.70
32706;DHT22;19094;50.972;3.538;2022-08-14T11:07:27;28.00;42.50
32706;DHT22;19094;50.972;3.538;2022-08-14T11:09:58;28.10;41.50
32706;DHT22;19094;50.972;3.538;2022-08-14T11:12:25;28.10;42.10
32706;DHT22;19094;50.972;3.538;2022-08-14T11:14:56;28.10;40.90
32706;DHT22;19094;50.972;3.538;2022-08-14T11:17:27;28.20;42.10
32706;DHT22;19094;50.972;3.538;2022-08-14T11:19:57;28.30;42.20
32706;DHT22;19094;50.972;3.538;2022-08-14T11:22:27;28.30;42.10
32706;DHT22;19094;50.972;3.538;2022-08-14T11:25:04;28.20;42.10
32706;DHT22;19094;50.972;3.538;2022-08-14T11:27:31;28.30;42.30
32706;DHT22;19094;50.972;3.538;2022-08-14T11:30:05;28.20;42.10
32706;DHT22;19094;50.972;3.538;2022-08-14T11:32:31;28.30;40.70
32706;DHT22;19094;50.972;3.538;2022-08-14T11:34:58;28.40;41.30
32706;DHT22;19094;50.972;3.538;2022-08-14T11:37:24;28.50;41.80
32706;DHT22;19094;50.972;3.538;2022-08-14T11:39:50;28.50;40.70
32706;DHT22;19094;50.972;3.538;2022-08-14T11:42:22;28.50;39.60
32706;DHT22;19094;50.972;3.538;2022-08-14T11:44:49;28.60;41.20
32706;DHT22;19094;50.972;3.538;2022-08-14T11:47:15;28.60;41.50
32706;DHT22;19094;50.972;3.538;2022-08-14T11:49:47;28.60;41.50
32706;DHT22;19094;50.972;3.538;2022-08-14T11:52:17;28.60;41.40
32706;DHT22;19094;50.972;3.538;2022-08-14T11:54:44;28.70;41.20
32706;DHT22;19094;50.972;3.538;2022-08-14T11:57:17;28.70;41.40
32706;DHT22;19094;50.972;3.538;2022-08-14T11:59:44;28.60;41.50
32706;DHT22;19094;50.972;3.538;2022-08-14T12:02:12;28.70;39.10
32706;DHT22;19094;50.972;3.538;2022-08-14T12:04:51;28.80;41.40
32706;DHT22;19094;50.972;3.538;2022-08-14T12:07:18;28.70;41.30
32706;DHT22;19094;50.972;3.538;2022-08-14T12:09:45;28.80;41.30
32706;DHT22;19094;50.972;3.538;2022-08-14T12:12:20;28.80;41.00
32706;DHT22;19094;50.972;3.538;2022-08-14T12:17:13;29.00;40.20
32706;DHT22;19094;50.972;3.538;2022-08-14T12:19:47;29.10;40.90
32706;DHT22;19094;50.972;3.538;2022-08-14T12:22:13;29.10;40.80
32706;DHT22;19094;50.972;3.538;2022-08-14T12:24:41;29.30;38.20
32706;DHT22;19094;50.972;3.538;2022-08-14T12:27:10;29.50;36.00
32706;DHT22;19094;50.972;3.538;2022-08-14T12:29:37;29.60;39.80
32706;DHT22;19094;50.972;3.538;2022-08-14T12:32:06;29.60;36.10
32706;DHT22;19094;50.972;3.538;2022-08-14T12:34:33;29.80;39.30
32706;DHT22;19094;50.972;3.538;2022-08-14T12:37:07;29.90;34.60
32706;DHT22;19094;50.972;3.538;2022-08-14T12:39:33;30.10;37.80
32706;DHT22;19094;50.972;3.538;2022-08-14T12:41:59;30.30;37.80
32706;DHT22;19094;50.972;3.538;2022-08-14T12:44:40;30.40;37.30
32706;DHT22;19094;50.972;3.538;2022-08-14T12:47:13;30.50;32.30
32706;DHT22;19094;50.972;3.538;2022-08-14T12:49:52;30.50;33.50
32706;DHT22;19094;50.972;3.538;2022-08-14T12:52:36;30.80;35.30
32706;DHT22;19094;50.972;3.538;2022-08-14T12:55:08;30.80;36.70
32706;DHT22;19094;50.972;3.538;2022-08-14T12:57:43;30.90;37.00
32706;DHT22;19094;50.972;3.538;2022-08-14T13:00:14;30.70;37.40
32706;DHT22;19094;50.972;3.538;2022-08-14T13:02:48;30.70;37.30
32706;DHT22;19094;50.972;3.538;2022-08-14T13:05:28;30.90;36.90
32706;DHT22;19094;50.972;3.538;2022-08-14T13:07:59;31.00;36.80
32706;DHT22;19094;50.972;3.538;2022-08-14T13:10:26;31.10;33.50
32706;DHT22;19094;50.972;3.538;2022-08-14T13:12:56;31.20;32.70
32706;DHT22;19094;50.972;3.538;2022-08-14T13:15:23;31.30;36.20
32706;DHT22;19094;50.972;3.538;2022-08-14T13:17:51;31.30;34.80
32706;DHT22;19094;50.972;3.538;2022-08-14T13:20:21;31.40;34.20
32706;DHT22;19094;50.972;3.538;2022-08-14T13:22:47;31.50;35.30
32706;DHT22;19094;50.972;3.538;2022-08-14T13:25:19;31.60;34.80
32706;DHT22;19094;50.972;3.538;2022-08-14T13:27:48;31.50;33.70
32706;DHT22;19094;50.972;3.538;2022-08-14T13:30:15;31.50;34.60
32706;DHT22;19094;50.972;3.538;2022-08-14T13:32:42;31.50;35.80
32706;DHT22;19094;50.972;3.538;2022-08-14T13:35:15;31.40;31.40
32706;DHT22;19094;50.972;3.538;2022-08-14T13:37:42;31.60;35.00
32706;DHT22;19094;50.972;3.538;2022-08-14T13:40:10;31.50;35.90
32706;DHT22;19094;50.972;3.538;2022-08-14T13:42:41;31.70;31.10
32706;DHT22;19094;50.972;3.538;2022-08-14T13:45:07;31.80;34.90
32706;DHT22;19094;50.972;3.538;2022-08-14T13:47:33;31.70;35.50
32706;DHT22;19094;50.972;3.538;2022-08-14T13:50:04;31.60;31.60
32706;DHT22;19094;50.972;3.538;2022-08-14T13:52:34;31.70;34.90
32706;DHT22;19094;50.972;3.538;2022-08-14T13:55:06;31.70;35.70
32706;DHT22;19094;50.972;3.538;2022-08-14T13:57:33;31.60;34.30
32706;DHT22;19094;50.972;3.538;2022-08-14T14:00:05;31.60;35.50
32706;DHT22;19094;50.972;3.538;2022-08-14T14:02:37;31.50;36.10
32706;DHT22;19094;50.972;3.538;2022-08-14T14:05:04;31.40;34.40
32706;DHT22;19094;50.972;3.538;2022-08-14T14:07:33;31.50;34.80
32706;DHT22;19094;50.972;3.538;2022-08-14T14:10:03;31.50;34.70
32706;DHT22;19094;50.972;3.538;2022-08-14T14:12:29;31.50;34.80
32706;DHT22;19094;50.972;3.538;2022-08-14T14:14:55;31.50;35.30
32706;DHT22;19094;50.972;3.538;2022-08-14T14:17:21;31.30;36.50
32706;DHT22;19094;50.972;3.538;2022-08-14T14:19:50;31.10;36.90
32706;DHT22;19094;50.972;3.538;2022-08-14T14:22:16;31.00;37.00
32706;DHT22;19094;50.972;3.538;2022-08-14T14:24:43;30.90;37.30
32706;DHT22;19094;50.972;3.538;2022-08-14T14:27:12;30.80;37.40
32706;DHT22;19094;50.972;3.538;2022-08-14T14:29:44;30.60;37.90
32706;DHT22;19094;50.972;3.538;2022-08-14T14:32:15;30.50;37.90
32706;DHT22;19094;50.972;3.538;2022-08-14T14:34:41;30.50;38.30
32706;DHT22;19094;50.972;3.538;2022-08-14T14:37:11;30.40;38.40
32706;DHT22;19094;50.972;3.538;2022-08-14T14:39:39;30.30;38.40
32706;DHT22;19094;50.972;3.538;2022-08-14T14:42:06;30.40;36.00
32706;DHT22;19094;50.972;3.538;2022-08-14T14:44:37;30.50;34.80
32706;DHT22;19094;50.972;3.538;2022-08-14T14:47:09;30.50;37.90
32706;DHT22;19094;50.972;3.538;2022-08-14T14:49:35;30.50;37.90
32706;DHT22;19094;50.972;3.538;2022-08-14T14:52:02;30.40;38.30
32706;DHT22;19094;50.972;3.538;2022-08-14T14:54:30;30.30;38.70
32706;DHT22;19094;50.972;3.538;2022-08-14T14:56:58;30.20;38.60
32706;DHT22;19094;50.972;3.538;2022-08-14T14:59:25;30.20;39.00
32706;DHT22;19094;50.972;3.538;2022-08-14T15:01:53;30.10;39.20
32706;DHT22;19094;50.972;3.538;2022-08-14T15:04:22;30.00;39.00
32706;DHT22;19094;50.972;3.538;2022-08-14T15:06:50;30.10;35.70
32706;DHT22;19094;50.972;3.538;2022-08-14T15:09:17;30.10;35.80
32706;DHT22;19094;50.972;3.538;2022-08-14T15:11:43;30.10;35.60
32706;DHT22;19094;50.972;3.538;2022-08-14T15:14:09;30.20;36.80
32706;DHT22;19094;50.972;3.538;2022-08-14T15:16:35;30.20;35.10
32706;DHT22;19094;50.972;3.538;2022-08-14T15:19:01;30.20;34.60
32706;DHT22;19094;50.972;3.538;2022-08-14T15:21:26;30.20;36.90
32706;DHT22;19094;50.972;3.538;2022-08-14T15:23:52;30.20;37.10
32706;DHT22;19094;50.972;3.538;2022-08-14T15:26:18;30.20;34.90
32706;DHT22;19094;50.972;3.538;2022-08-14T15:28:44;30.20;36.70
32706;DHT22;19094;50.972;3.538;2022-08-14T15:31:10;30.20;35.60
32706;DHT22;19094;50.972;3.538;2022-08-14T15:33:37;30.20;35.40
32706;DHT22;19094;50.972;3.538;2022-08-14T15:36:21;30.20;36.30
32706;DHT22;19094;50.972;3.538;2022-08-14T15:38:47;30.20;36.60
32706;DHT22;19094;50.972;3.538;2022-08-14T15:41:15;30.20;36.10
32706;DHT22;19094;50.972;3.538;2022-08-14T15:43:41;30.20;37.80
32706;DHT22;19094;50.972;3.538;2022-08-14T15:46:07;30.20;35.10
32706;DHT22;19094;50.972;3.538;2022-08-14T15:48:34;30.20;37.30
32706;DHT22;19094;50.972;3.538;2022-08-14T15:51:00;30.10;37.20
32706;DHT22;19094;50.972;3.538;2022-08-14T15:53:26;30.10;35.40
32706;DHT22;19094;50.972;3.538;2022-08-14T15:55:54;30.10;38.00
32706;DHT22;19094;50.972;3.538;2022-08-14T15:58:24;30.00;38.50
32706;DHT22;19094;50.972;3.538;2022-08-14T16:00:52;30.00;36.60